Portada
METAR-TAF:

METAR-TAF

Aeroports :

Anvers, Bèlgica

latitud: 51-12N, longitud: 004-28E, altitud: 12 m

Observació

L'informe es va fer fa 16 minuts, a les 13:50 UTC
Vent 5 kt del Nord/Nord-Oest, variant entre Oest i Nord/Nord-Est
Temperatura 20°C
Humitat 56%
Pressió 1019 hPa
Visibilitat 10 km o més
Cel ennuvolat a una alçada de 3700 ft

METAR: EBAW 161350Z 34005KT 280V030 9999 BKN037 20/11 Q1019 NOSIG

Hora: 16:06 (14:06 UTC)

Pronòstic

L'informe es va fer fa 3 hores i 3 minuts, a les 11:03 UTC
Pronòstic vàlid del 16 a les 12 UTC al 16 a les 21 UTC
Vent 5 kt del Oest/Nord-Oest
Visibilitat 10 km o més
Núvols disperses a una alçada de 3500 ft

TAF: EBAW 161103Z 1612/1621 30005KT 9999 SCT035

Observacions i pronòstics meteorològics de més de 4000 aeroports (METAR i TAF).

Les estacions disponibles són els punts grocs i vermells al mapa.

Posi el ratolí al punt desitjat per veure el nom de l'estació.

Feu clic per veure les observacions i els pronòstics meteorològics.

Per canviar el mapa: feu clic els botons verds amb una creu de color negre per apropar; al botó verd amb un guió per allunyar la imatge; o en les fletxes verdes per a mapes adjacents.


METAR-TAF: